Time;durP1;ratioP1;P1;durP2;ratioP2;P2;SDS_P1;SDS_P2;PMS_P1;PMS_P2;Temp;Humidity;BMP_temperature;BMP_pressure;BME280_temperature;BME280_humidity;BME280_pressure;Samples;Min_cycle;Max_cycle;Signal;HPM_P1;HPM_P2
2021/06/24 00:01:09;;;;;;;93.00;39.22;;;;;;;24.96;60.22;100068.22;5034389;28;20115;-82
2021/06/24 00:03:36;;;;;;;81.00;34.03;;;;;;;24.96;60.11;100071.03;5034617;28;20056;-82
2021/06/24 00:06:05;;;;;;;91.28;32.50;;;;;;;24.92;60.38;100071.00;5033879;28;20065;-81
2021/06/24 00:08:31;;;;;;;73.72;32.05;;;;;;;24.93;60.36;100081.00;5035521;28;20049;-82
2021/06/24 00:11:00;;;;;;;62.35;22.30;;;;;;;24.82;61.21;100068.97;5034199;28;20450;-82
2021/06/24 00:13:27;;;;;;;50.42;16.40;;;;;;;24.78;61.99;100073.75;5045285;28;20033;-81
2021/06/24 00:15:55;;;;;;;58.47;14.80;;;;;;;24.67;62.38;100079.28;5054107;28;20037;-81
2021/06/24 00:18:21;;;;;;;;;;;;;;;24.68;62.53;100077.28;5053962;28;20118;-81
2021/06/24 00:20:48;;;;;;;46.60;15.38;;;;;;;24.61;62.66;100075.25;5052373;28;19924;-81
2021/06/24 00:23:14;;;;;;;;;;;;;;;24.55;63.05;100077.59;5053449;28;20044;-82
2021/06/24 00:25:40;;;;;;;54.50;15.50;;;;;;;24.48;63.15;100077.56;5051764;28;20423;-81
2021/06/24 00:28:07;;;;;;;46.15;14.82;;;;;;;24.41;63.34;100080.31;5033852;28;20098;-81
2021/06/24 00:30:37;;;;;;;37.53;14.20;;;;;;;24.38;63.54;100076.25;5033872;28;20038;-83
2021/06/24 00:33:05;;;;;;;46.50;14.43;;;;;;;24.37;63.73;100083.03;5035114;28;20068;-80
2021/06/24 00:35:31;;;;;;;46.20;16.65;;;;;;;24.35;63.75;100087.41;5033857;28;20052;-81
2021/06/24 00:37:58;;;;;;;60.00;16.55;;;;;;;24.29;63.76;100077.78;5034248;28;20152;-82
2021/06/24 00:40:24;;;;;;;40.53;15.45;;;;;;;24.39;63.73;100083.44;5032425;28;20113;-82
2021/06/24 00:42:51;;;;;;;43.17;15.18;;;;;;;24.38;64.06;100086.63;5032786;28;20132;-79
2021/06/24 00:45:17;;;;;;;;;;;;;;;24.39;64.02;100088.22;5034376;28;20042;-80
2021/06/24 00:47:45;;;;;;;48.25;14.07;;;;;;;24.38;63.50;100075.44;5034534;28;19995;-81
2021/06/24 00:50:13;;;;;;;;;;;;;;;24.39;64.00;100096.63;5034322;28;20037;-79
2021/06/24 00:52:39;;;;;;;44.95;13.80;;;;;;;24.54;63.25;100095.56;5048762;28;19963;-87
2021/06/24 00:55:17;;;;;;;51.88;16.35;;;;;;;24.68;63.08;100092.06;5033436;28;20415;-86
2021/06/24 00:57:45;;;;;;;40.28;14.43;;;;;;;24.54;63.38;100101.16;5031863;28;20528;-79
2021/06/24 01:00:12;;;;;;;43.33;15.45;;;;;;;24.38;64.09;100098.59;5032467;28;20158;-80
2021/06/24 01:02:39;;;;;;;48.30;17.30;;;;;;;24.39;63.97;100105.00;5048990;28;20049;-79
2021/06/24 01:05:05;;;;;;;50.33;16.63;;;;;;;24.39;63.94;100105.00;5033242;28;20041;-76
2021/06/24 01:07:33;;;;;;;52.17;19.35;;;;;;;24.37;64.28;100096.19;5033203;28;20383;-76
2021/06/24 01:10:18;;;;;;;52.97;17.40;;;;;;;24.45;64.40;100113.88;5045945;28;20037;-77
2021/06/24 01:12:47;;;;;;;61.70;21.05;;;;;;;24.45;64.23;100114.66;5035823;28;20044;-80
2021/06/24 01:15:13;;;;;;;49.75;20.75;;;;;;;24.41;64.60;100119.44;5053208;28;20056;-74
2021/06/24 01:17:39;;;;;;;;;;;;;;;24.41;64.16;100113.84;5052515;28;20077;-78
2021/06/24 01:20:07;;;;;;;115.00;39.22;;;;;;;24.59;63.55;100114.75;5051742;28;20339;-79
2021/06/24 01:22:35;;;;;;;138.40;47.28;;;;;;;24.58;63.67;100113.16;5051818;28;20037;-78
2021/06/24 01:25:02;;;;;;;207.02;75.80;;;;;;;24.61;63.38;100117.97;5052784;28;20068;-76
2021/06/24 01:27:29;;;;;;;221.00;84.70;;;;;;;24.57;63.75;100114.38;5052679;28;20555;-76
2021/06/24 01:29:55;;;;;;;194.95;69.28;;;;;;;24.65;63.47;100115.19;5052933;28;20037;-78
2021/06/24 01:32:22;;;;;;;164.50;61.20;;;;;;;24.67;63.14;100115.63;5052884;28;20059;-78
2021/06/24 01:34:48;;;;;;;112.78;43.78;;;;;;;24.68;63.03;100105.25;5052847;28;20041;-79
2021/06/24 01:37:14;;;;;;;91.13;37.15;;;;;;;24.68;63.06;100108.03;5052816;28;20052;-76
2021/06/24 01:39:41;;;;;;;88.88;29.63;;;;;;;24.67;63.01;100117.59;5051047;28;20057;-78
2021/06/24 01:42:13;;;;;;;72.40;29.98;;;;;;;24.74;62.64;100107.28;5051414;28;20071;-81
2021/06/24 01:44:40;;;;;;;78.95;31.05;;;;;;;24.83;62.14;100101.31;5050948;28;20159;-82
2021/06/24 01:47:11;;;;;;;86.75;31.02;;;;;;;24.84;62.00;100094.56;5052089;28;20041;-81
2021/06/24 01:49:38;;;;;;;85.00;30.75;;;;;;;24.97;62.18;100109.81;5050859;28;20051;-83
2021/06/24 01:52:05;;;;;;;;;;;;;;;24.93;62.78;100105.38;5052512;28;20120;-80
2021/06/24 01:54:32;;;;;;;72.47;24.75;;;;;;;24.95;62.55;100101.00;5052257;28;20020;-83
2021/06/24 01:56:58;;;;;;;;;;;;;;;25.03;62.69;100121.41;5052407;28;20041;-77
2021/06/24 01:59:25;;;;;;;47.92;17.02;;;;;;;24.90;63.16;100111.75;5051790;28;20340;-75
2021/06/24 02:02:04;;;;;;;43.33;16.15;;;;;;;24.77;63.73;100114.91;5052089;28;20076;-75
2021/06/24 02:04:51;;;;;;;36.60;13.80;;;;;;;24.70;63.88;100116.81;5052348;28;20033;-75
2021/06/24 02:07:45;;;;;;;49.08;15.52;;;;;;;24.68;64.08;100113.63;5049926;28;20477;-75
2021/06/24 02:10:21;;;;;;;44.22;16.13;;;;;;;24.66;64.14;100111.22;5050929;28;20045;-75
2021/06/24 02:12:57;;;;;;;37.60;15.75;;;;;;;24.68;64.72;100122.03;5052221;28;20048;-75
2021/06/24 02:15:26;;;;;;;45.05;14.98;;;;;;;24.57;64.71;100107.97;5051932;28;20037;-75
2021/06/24 02:17:52;;;;;;;41.58;15.05;;;;;;;24.63;64.76;100114.78;5050815;28;20048;-75
2021/06/24 02:20:29;;;;;;;40.20;15.20;;;;;;;24.72;64.78;100122.84;5050684;28;20429;-75
2021/06/24 02:23:13;;;;;;;43.38;14.85;;;;;;;24.72;64.72;100117.25;5050596;28;20045;-75
2021/06/24 02:25:45;;;;;;;35.80;16.02;;;;;;;24.72;64.72;100111.66;5050572;28;20033;-75
2021/06/24 02:28:19;;;;;;;57.20;16.35;;;;;;;24.73;64.40;100114.03;5050718;28;20044;-75
2021/06/24 02:31:14;;;;;;;42.28;15.15;;;;;;;24.80;64.27;100118.88;5029370;28;20053;-75
2021/06/24 02:33:44;;;;;;;58.20;21.73;;;;;;;24.85;64.25;100122.13;5013057;28;20045;-75
2021/06/24 02:36:33;;;;;;;58.42;21.05;;;;;;;24.85;63.87;100110.13;5023828;28;20037;-75
2021/06/24 02:39:03;;;;;;;49.60;20.30;;;;;;;25.00;63.76;100122.19;5029059;28;20061;-75
2021/06/24 02:41:35;;;;;;;49.13;20.88;;;;;;;25.06;64.04;100132.63;5029269;28;20057;-75
2021/06/24 02:44:04;;;;;;;56.05;19.77;;;;;;;25.13;63.91;100119.91;5012936;28;20041;-75
2021/06/24 02:46:32;;;;;;;55.03;21.38;;;;;;;25.15;63.74;100118.31;5029267;28;20414;-75
2021/06/24 02:48:59;;;;;;;42.95;19.48;;;;;;;25.27;63.92;100119.97;5012706;28;20055;-75
2021/06/24 02:51:41;;;;;;;47.05;19.33;;;;;;;25.33;63.99;100112.81;5029270;28;20041;-75
2021/06/24 02:54:17;;;;;;;56.35;21.45;;;;;;;25.36;63.97;100105.59;5012788;28;20099;-75
2021/06/24 02:56:46;;;;;;;61.58;28.45;;;;;;;25.45;63.49;100101.25;5029261;28;20041;-75
2021/06/24 02:59:31;;;;;;;75.72;30.42;;;;;;;25.51;63.41;100107.28;5029209;28;20056;-75
2021/06/24 03:02:01;;;;;;;60.70;25.90;;;;;;;25.53;63.72;100105.69;5029095;28;20044;-75
2021/06/24 03:04:31;;;;;;;46.63;21.42;;;;;;;25.63;64.12;100104.13;5029196;28;20041;-75
2021/06/24 03:07:01;;;;;;;49.17;21.80;;;;;;;25.57;63.87;100096.50;5018795;28;20057;-75
2021/06/24 03:09:30;;;;;;;51.22;21.05;;;;;;;25.74;64.05;100120.94;5050160;28;20041;-75
2021/06/24 03:11:58;;;;;;;51.65;19.55;;;;;;;25.81;63.50;100117.38;5051546;28;20045;-75
2021/06/24 03:14:24;;;;;;;49.42;20.15;;;;;;;25.88;63.32;100128.59;5050331;28;20037;-75
2021/06/24 03:16:51;;;;;;;40.08;17.80;;;;;;;25.92;62.90;100118.97;5050359;28;20037;-75
2021/06/24 03:19:20;;;;;;;55.72;23.00;;;;;;;25.94;63.36;100113.78;5051107;28;20395;-75
2021/06/24 03:22:00;;;;;;;64.93;24.50;;;;;;;25.98;62.68;100120.19;5051171;28;20527;-75
2021/06/24 03:24:34;;;;;;;64.70;25.52;;;;;;;26.07;63.07;100119.03;5049892;28;20098;-75
2021/06/24 03:27:01;;;;;;;70.15;27.73;;;;;;;26.15;63.01;100123.44;5051209;28;20048;-75
2021/06/24 03:29:28;;;;;;;68.18;27.23;;;;;;;26.21;62.81;100114.22;5051310;28;20069;-79
2021/06/24 03:31:54;;;;;;;40.80;18.65;;;;;;;26.27;62.21;100120.22;5051020;28;20541;-75
2021/06/24 03:34:29;;;;;;;48.22;16.27;;;;;;;26.33;60.88;100129.06;5050985;28;20045;-75
2021/06/24 03:36:57;;;;;;;41.22;14.75;;;;;;;26.40;61.08;100118.63;5050966;28;20437;-75
2021/06/24 03:39:29;;;;;;;44.00;14.55;;;;;;;26.48;60.78;100113.84;5049494;28;20064;-75
2021/06/24 03:41:57;;;;;;;52.58;14.73;;;;;;;26.57;60.15;100116.25;5035311;28;20532;-75
2021/06/24 03:44:23;;;;;;;;;;;;;;;26.63;59.74;100114.66;5055102;28;20044;-75
2021/06/24 03:46:51;;;;;;;43.42;14.20;;;;;;;26.69;59.66;100110.22;5053686;28;19925;-75
2021/06/24 03:49:18;;;;;;;44.20;15.02;;;;;;;26.75;59.51;100107.78;5054629;28;20553;-75
2021/06/24 03:51:45;;;;;;;36.10;13.75;;;;;;;26.77;59.30;100103.38;5054763;28;20037;-75
2021/06/24 03:54:11;;;;;;;37.90;15.75;;;;;;;26.88;59.58;100106.16;5053212;28;20048;-76
2021/06/24 03:56:39;;;;;;;44.53;15.40;;;;;;;26.95;59.11;100114.56;5054376;28;20548;-75
2021/06/24 03:59:17;;;;;;;41.58;15.70;;;;;;;27.04;58.46;100108.53;5053153;28;20407;-75
2021/06/24 04:01:45;;;;;;;44.05;15.75;;;;;;;27.11;58.13;100103.69;5053011;28;20498;-75
2021/06/24 04:04:13;;;;;;;43.28;18.00;;;;;;;27.16;57.92;100097.69;5053161;28;20052;-75
2021/06/24 04:06:46;;;;;;;56.13;17.42;;;;;;;27.25;58.44;100102.88;5053111;28;20060;-75
2021/06/24 04:09:14;;;;;;;40.47;16.40;;;;;;;27.36;58.39;100114.84;5054299;28;20111;-75
2021/06/24 04:11:40;;;;;;;61.58;17.58;;;;;;;27.43;58.11;100099.97;5054164;28;20059;-75
2021/06/24 04:14:15;;;;;;;48.35;15.65;;;;;;;27.50;57.93;100099.16;5052861;28;20071;-75
2021/06/24 04:17:05;;;;;;;46.22;15.52;;;;;;;27.57;57.73;100099.09;5054311;28;20045;-75
2021/06/24 04:19:32;;;;;;;40.70;15.30;;;;;;;27.67;57.40;100108.69;5053014;28;20050;-75
2021/06/24 04:22:00;;;;;;;44.00;14.23;;;;;;;27.74;55.96;100103.81;5053990;28;20037;-75
2021/06/24 04:24:43;;;;;;;39.13;14.48;;;;;;;27.86;51.66;100097.75;5053076;28;20080;-85
2021/06/24 04:27:09;;;;;;;33.25;15.20;;;;;;;27.97;53.34;100100.47;5053871;28;20045;-76
2021/06/24 04:29:39;;;;;;;39.10;15.02;;;;;;;28.03;52.08;100090.41;5052612;28;20689;-75
2021/06/24 04:32:07;;;;;;;33.22;14.90;;;;;;;28.17;51.58;100095.09;5053831;28;20495;-75
2021/06/24 04:34:33;;;;;;;35.47;14.35;;;;;;;28.26;53.01;100089.00;5054011;28;20514;-76
2021/06/24 04:37:06;;;;;;;44.55;15.15;;;;;;;28.34;52.20;100091.38;5054168;28;20048;-76
2021/06/24 04:39:34;;;;;;;35.50;13.95;;;;;;;28.40;51.54;100086.09;5053474;28;20590;-81
2021/06/24 04:42:02;;;;;;;31.38;13.60;;;;;;;28.50;52.19;100087.22;5054086;28;20040;-75
2021/06/24 04:44:30;;;;;;;43.63;14.23;;;;;;;28.61;50.68;100084.28;5052470;28;20116;-79
2021/06/24 04:46:56;;;;;;;;;;;;;;;28.69;49.75;100089.44;5054381;28;20061;-83
2021/06/24 04:49:24;;;;;;;118.15;16.73;;;;;;;28.77;50.52;100088.16;5053815;28;19990;-76
2021/06/24 04:52:03;;;;;;;69.28;14.20;;;;;;;28.93;48.90;100098.03;5053541;28;20041;-76
2021/06/24 04:54:41;;;;;;;31.90;12.93;;;;;;;28.96;50.38;100089.53;5053609;28;20151;-82
2021/06/24 04:57:07;;;;;;;52.63;13.52;;;;;;;29.08;49.05;100093.88;5053304;28;20073;-75
2021/06/24 05:00:09;;;;;;;87.70;15.38;;;;;;;29.15;49.00;100088.16;4991562;28;20045;-79
2021/06/24 05:02:56;;;;;;;75.38;14.82;;;;;;;29.26;49.04;100088.78;5049648;28;20079;-84
2021/06/24 05:05:39;;;;;;;61.97;13.77;;;;;;;29.39;48.63;100096.69;5053217;28;20547;-75
2021/06/24 05:08:12;;;;;;;50.10;14.60;;;;;;;29.48;49.35;100096.97;5053162;28;20041;-76
2021/06/24 05:10:38;;;;;;;31.70;13.77;;;;;;;29.55;47.53;100093.25;5053384;28;20105;-77
2021/06/24 05:13:04;;;;;;;36.83;13.38;;;;;;;29.59;47.22;100089.16;5053128;28;20041;-85
2021/06/24 05:15:32;;;;;;;34.50;13.02;;;;;;;29.65;47.19;100087.50;5053013;28;20525;-78
2021/06/24 05:17:58;;;;;;;28.98;13.27;;;;;;;29.71;47.84;100096.28;5053270;28;20037;-78
2021/06/24 05:20:25;;;;;;;43.08;13.95;;;;;;;29.73;47.43;100089.00;5051711;28;20041;-76
2021/06/24 05:22:51;;;;;;;38.53;16.58;;;;;;;29.78;48.63;100090.53;5052826;28;20037;-76
2021/06/24 05:25:17;;;;;;;38.17;17.10;;;;;;;29.80;48.81;100092.91;5051725;28;20068;-76
2021/06/24 05:27:43;;;;;;;35.95;17.35;;;;;;;29.78;48.80;100095.38;5052749;28;20045;-83
2021/06/24 05:30:10;;;;;;;35.88;15.80;;;;;;;29.83;47.25;100087.22;5052974;28;20044;-77
2021/06/24 05:32:36;;;;;;;40.63;15.50;;;;;;;29.89;47.95;100090.38;5052726;28;20044;-85
2021/06/24 05:35:05;;;;;;;33.47;15.43;;;;;;;29.91;47.86;100083.09;5052714;28;20036;-76
2021/06/24 05:37:31;;;;;;;48.90;16.38;;;;;;;29.97;48.26;100100.31;5051336;28;20509;-75
2021/06/24 05:39:57;;;;;;;35.70;13.77;;;;;;;30.00;46.62;100088.19;5052449;28;20049;-83
2021/06/24 05:42:23;;;;;;;35.70;12.05;;;;;;;30.04;46.55;100088.94;5052782;28;20052;-75
2021/06/24 05:44:49;;;;;;;36.08;11.23;;;;;;;30.07;45.93;100081.66;5052835;28;20041;-75
2021/06/24 05:47:16;;;;;;;25.80;10.65;;;;;;;30.14;47.58;100087.97;5052702;28;20387;-75
2021/06/24 05:49:42;;;;;;;38.78;10.68;;;;;;;30.17;46.55;100089.91;5052126;28;20524;-76
2021/06/24 05:52:08;;;;;;;30.23;9.85;;;;;;;30.21;44.26;100080.63;5052157;28;20118;-75
2021/06/24 05:54:35;;;;;;;24.92;8.68;;;;;;;30.24;43.79;100079.78;5050922;28;20036;-76
2021/06/24 05:57:01;;;;;;;33.22;8.75;;;;;;;30.26;42.76;100077.31;5050973;28;20048;-76
2021/06/24 05:59:27;;;;;;;34.65;8.63;;;;;;;30.34;43.37;100084.44;5052129;28;20055;-77
2021/06/24 06:01:53;;;;;;;31.55;9.10;;;;;;;30.37;45.33;100080.75;5052056;28;20510;-79
2021/06/24 06:04:19;;;;;;;33.00;9.52;;;;;;;30.38;46.91;100082.34;5051833;28;20056;-84
2021/06/24 06:06:46;;;;;;;29.55;10.40;;;;;;;30.40;47.74;100082.72;5052320;28;20491;-81
2021/06/24 06:09:14;;;;;;;23.10;8.88;;;;;;;30.43;44.49;100079.84;5051055;28;20132;-77
2021/06/24 06:11:43;;;;;;;35.65;8.93;;;;;;;30.48;45.86;100083.38;5051923;28;20044;-76
2021/06/24 06:14:09;;;;;;;39.70;9.45;;;;;;;30.41;46.02;100064.56;5051953;28;20041;-82
2021/06/24 06:16:36;;;;;;;44.58;9.43;;;;;;;30.55;47.57;100074.78;5051906;28;20068;-85
2021/06/24 06:19:02;;;;;;;35.03;7.90;;;;;;;30.61;45.89;100073.06;5051988;28;20049;-75
2021/06/24 06:21:30;;;;;;;29.25;8.05;;;;;;;30.63;45.53;100071.41;5051669;28;20045;-76
2021/06/24 06:23:57;;;;;;;18.60;8.35;;;;;;;30.71;44.56;100074.09;5051761;28;20029;-76
2021/06/24 06:26:25;;;;;;;23.48;8.30;;;;;;;30.75;44.19;100077.63;5051694;28;20063;-76
2021/06/24 06:28:52;;;;;;;23.17;6.97;;;;;;;30.78;42.72;100076.81;5051697;28;20033;-76
2021/06/24 06:31:20;;;;;;;21.38;7.38;;;;;;;30.70;42.59;100070.47;5050570;28;20044;-76
2021/06/24 06:33:46;;;;;;;20.55;6.10;;;;;;;30.79;41.16;100075.56;5050480;28;20040;-76
2021/06/24 06:36:14;;;;;;;27.33;5.68;;;;;;;30.71;39.23;100066.41;5052059;28;20210;-76
2021/06/24 06:38:40;;;;;;;20.75;4.72;;;;;;;30.79;35.18;100073.53;5051455;28;20049;-76
2021/06/24 06:41:08;;;;;;;21.58;5.45;;;;;;;30.82;39.32;100078.31;5051635;28;20037;-76
2021/06/24 06:43:34;;;;;;;;;;;;;;;30.85;38.31;100073.84;5052149;28;20068;-76
2021/06/24 06:46:00;;;;;;;19.83;5.78;;;;;;;30.89;38.93;100080.19;5051832;28;20002;-76
2021/06/24 06:48:26;;;;;;;15.88;4.75;;;;;;;30.96;37.77;100073.63;5050392;28;20503;-76
2021/06/24 06:50:53;;;;;;;17.50;5.15;;;;;;;31.00;39.49;100080.81;5051329;28;20045;-83
2021/06/24 06:53:19;;;;;;;15.60;5.40;;;;;;;31.05;37.60;100082.31;5051335;28;20437;-76
2021/06/24 06:55:46;;;;;;;41.42;5.68;;;;;;;31.10;36.66;100070.53;5050153;28;20605;-76
2021/06/24 06:58:12;;;;;;;19.80;5.80;;;;;;;31.18;36.40;100066.31;5049917;28;20041;-76
2021/06/24 07:00:39;;;;;;;22.13;6.20;;;;;;;31.13;38.81;100067.63;5049976;28;20044;-75
2021/06/24 07:03:05;;;;;;;;;;;;;;;31.19;37.01;100067.09;5051724;28;20037;-79
2021/06/24 07:05:32;;;;;;;25.50;6.45;;;;;;;31.20;37.05;100054.59;5050064;28;19920;-76
2021/06/24 07:08:29;;;;;;;21.50;6.35;;;;;;;31.28;37.68;100072.97;5051313;28;20045;-86
2021/06/24 07:10:55;;;;;;;20.05;6.65;;;;;;;31.30;37.79;100064.84;5032225;28;20457;-76
2021/06/24 07:13:21;;;;;;;16.17;6.20;;;;;;;31.26;38.31;100053.63;5048864;28;20049;-76
2021/06/24 07:15:48;;;;;;;;;;;;;;;31.34;37.70;100063.56;5034659;28;20578;-76
2021/06/24 07:18:14;;;;;;;21.02;6.93;;;;;;;31.38;38.09;100066.31;5052815;28;20381;-76
2021/06/24 07:20:42;;;;;;;23.98;7.03;;;;;;;31.39;39.07;100065.09;5052804;28;20052;-76
2021/06/24 07:23:08;;;;;;;25.77;7.13;;;;;;;31.39;38.51;100064.28;5052850;28;20302;-76
2021/06/24 07:25:36;;;;;;;29.85;7.30;;;;;;;31.48;38.29;100062.44;5052788;28;20577;-76
2021/06/24 07:28:02;;;;;;;26.50;6.80;;;;;;;31.56;37.77;100065.94;5036017;28;20127;-76
2021/06/24 07:30:28;;;;;;;26.67;6.50;;;;;;;31.58;36.42;100063.44;5052572;28;20056;-76
2021/06/24 07:32:55;;;;;;;23.05;6.32;;;;;;;31.64;35.28;100064.50;5052491;28;20071;-76
2021/06/24 07:35:21;;;;;;;22.92;6.05;;;;;;;31.70;35.54;100054.28;5052445;28;20094;-76
2021/06/24 07:37:49;;;;;;;24.67;6.15;;;;;;;31.73;36.92;100055.44;5052166;28;20040;-85
2021/06/24 07:40:17;;;;;;;23.52;6.47;;;;;;;31.76;36.36;100049.69;5052501;28;20037;-76
2021/06/24 07:42:43;;;;;;;22.42;6.35;;;;;;;31.77;37.59;100045.63;5054378;28;20060;-76
2021/06/24 07:45:11;;;;;;;19.35;6.38;;;;;;;31.83;37.96;100045.91;5055000;28;20072;-76
2021/06/24 07:47:37;;;;;;;25.60;6.53;;;;;;;31.85;38.69;100040.56;5054526;28;20636;-76
2021/06/24 07:50:05;;;;;;;22.45;6.30;;;;;;;31.93;37.98;100042.03;5054634;28;20045;-76
2021/06/24 07:52:31;;;;;;;18.40;5.88;;;;;;;31.94;36.62;100037.97;5054390;28;20048;-76
2021/06/24 07:54:57;;;;;;;;;;;;;;;32.00;34.89;100043.91;5055108;28;20052;-76
2021/06/24 07:57:24;;;;;;;19.90;5.53;;;;;;;31.94;34.89;100043.63;5054397;28;19979;-76
2021/06/24 07:59:50;;;;;;;26.15;6.78;;;;;;;31.86;35.71;100022.41;5054250;28;20047;-76
2021/06/24 08:02:17;;;;;;;17.90;6.18;;;;;;;31.99;36.79;100033.81;5054685;28;20056;-76
2021/06/24 08:04:43;;;;;;;21.42;6.10;;;;;;;32.01;36.05;100031.34;5054105;28;20518;-76
2021/06/24 08:07:10;;;;;;;;;;;;;;;32.09;35.86;100037.59;5055227;28;20044;-76
2021/06/24 08:09:36;;;;;;;21.42;5.35;;;;;;;32.12;37.13;100031.88;5054244;28;19920;-76
2021/06/24 08:12:02;;;;;;;20.85;5.72;;;;;;;32.20;36.28;100021.16;5054127;28;20037;-76
2021/06/24 08:14:29;;;;;;;20.45;5.40;;;;;;;32.29;36.25;100022.13;5054258;28;20037;-77
2021/06/24 08:16:55;;;;;;;23.95;6.10;;;;;;;32.34;36.13;100025.63;5054013;28;20178;-76
2021/06/24 08:19:23;;;;;;;17.45;5.88;;;;;;;32.29;35.11;100018.50;5053870;28;20409;-75
2021/06/24 08:21:50;;;;;;;17.80;6.25;;;;;;;32.34;34.37;100032.09;5054236;28;20045;-76
2021/06/24 08:24:18;;;;;;;26.48;6.10;;;;;;;32.35;35.22;100030.06;5053802;28;20077;-76
2021/06/24 08:26:44;;;;;;;19.02;5.78;;;;;;;32.36;34.42;100028.84;5053230;28;20524;-76
2021/06/24 08:29:12;;;;;;;35.97;6.28;;;;;;;32.35;35.35;100016.72;5054102;28;20060;-76
2021/06/24 08:31:38;;;;;;;15.77;5.70;;;;;;;32.41;35.05;100020.56;5053907;28;20072;-76
2021/06/24 08:34:04;;;;;;;;;;;;;;;32.41;33.77;100020.56;5054243;28;20136;-76
2021/06/24 08:36:30;;;;;;;26.60;6.15;;;;;;;32.45;34.78;100018.50;5053778;28;19921;-76
2021/06/24 08:38:56;;;;;;;;;;;;;;;32.54;35.67;100020.66;5053798;28;20056;-76
2021/06/24 08:41:25;;;;;;;21.02;6.22;;;;;;;32.58;35.99;100026.22;5053530;28;19928;-76
2021/06/24 08:43:53;;;;;;;18.70;5.65;;;;;;;32.62;35.72;100030.56;5053498;28;20055;-76
2021/06/24 08:46:21;;;;;;;22.10;6.03;;;;;;;32.63;35.53;100018.00;5035720;28;20417;-76
2021/06/24 08:48:50;;;;;;;26.17;6.38;;;;;;;32.69;35.01;100023.91;5053240;28;20041;-76
2021/06/24 08:51:17;;;;;;;30.85;6.75;;;;;;;32.75;35.91;100025.75;5053475;28;20106;-76
2021/06/24 08:53:46;;;;;;;21.75;6.72;;;;;;;32.81;35.90;100031.63;5053468;28;20045;-76
2021/06/24 08:56:15;;;;;;;21.60;6.32;;;;;;;32.88;35.69;100022.13;5053194;28;20045;-76
2021/06/24 08:58:41;;;;;;;24.80;6.22;;;;;;;32.94;34.76;100031.66;5053100;28;20045;-76
2021/06/24 09:01:07;;;;;;;33.92;6.55;;;;;;;32.88;35.96;100028.63;5053052;28;20033;-76
2021/06/24 09:03:43;;;;;;;;;;;;;;;32.87;34.40;100024.19;5052642;28;20051;-76
2021/06/24 09:06:09;;;;;;;24.60;6.30;;;;;;;32.86;34.92;100022.59;5052923;28;20015;-76
2021/06/24 09:08:46;;;;;;;20.05;6.60;;;;;;;32.83;34.76;100017.81;5053020;28;20076;-76
2021/06/24 09:11:19;;;;;;;23.90;6.75;;;;;;;32.73;35.02;100007.59;5053000;28;20037;-76
2021/06/24 09:14:03;;;;;;;18.55;6.75;;;;;;;32.80;34.56;100021.56;5053270;28;20072;-76
2021/06/24 09:16:34;;;;;;;25.38;6.93;;;;;;;32.81;34.37;100017.47;5053219;28;20044;-76
2021/06/24 09:19:30;;;;;;;23.92;6.80;;;;;;;32.85;36.57;100009.69;5051452;28;20288;-76
2021/06/24 09:22:02;;;;;;;26.40;6.95;;;;;;;32.97;35.45;100016.63;5010689;28;20128;-76
2021/06/24 09:24:34;;;;;;;37.88;7.35;;;;;;;33.03;35.97;100020.50;4994446;28;20046;-76
2021/06/24 09:27:04;;;;;;;18.52;6.70;;;;;;;33.07;35.47;100009.84;5010552;28;20451;-76
2021/06/24 09:29:33;;;;;;;32.13;7.28;;;;;;;33.24;34.94;100013.41;5010739;28;20056;-76
2021/06/24 09:32:00;;;;;;;27.17;7.65;;;;;;;33.25;33.89;100015.00;4994332;28;20042;-77
2021/06/24 09:34:26;;;;;;;30.35;7.53;;;;;;;33.30;33.72;100007.97;5010514;28;20097;-76
2021/06/24 09:36:59;;;;;;;25.85;7.72;;;;;;;33.32;33.46;100014.78;4994068;28;20048;-76
2021/06/24 09:39:32;;;;;;;24.58;7.35;;;;;;;33.36;34.04;100009.00;5038269;28;20161;-76
2021/06/24 09:42:11;;;;;;;20.48;7.13;;;;;;;33.35;33.80;99996.88;5052386;28;20041;-76
2021/06/24 09:44:43;;;;;;;13.20;6.30;;;;;;;33.43;33.19;100003.88;5051024;28;20127;-76
2021/06/24 09:47:21;;;;;;;18.98;6.40;;;;;;;33.38;33.66;99992.34;5052589;28;20105;-77
2021/06/24 09:50:00;;;;;;;23.38;6.15;;;;;;;33.49;33.23;100006.19;5052414;28;20041;-76
2021/06/24 09:52:29;;;;;;;22.05;6.65;;;;;;;33.44;33.86;99994.16;5051025;28;20098;-76
2021/06/24 09:55:10;;;;;;;23.63;6.47;;;;;;;33.48;33.60;99994.03;5052647;28;20090;-76
2021/06/24 09:57:38;;;;;;;18.42;7.07;;;;;;;33.54;35.17;99997.91;5051102;28;20037;-77
2021/06/24 10:00:47;;;;;;;20.60;7.45;;;;;;;33.63;33.61;99995.16;5052284;28;20102;-76
2021/06/24 10:03:13;;;;;;;21.90;6.75;;;;;;;33.59;32.41;100002.22;5031910;28;20041;-76
2021/06/24 10:05:43;;;;;;;;;;;;;;;33.56;32.89;100001.09;5052393;28;20068;-76
2021/06/24 10:08:10;;;;;;;23.52;6.78;;;;;;;33.62;33.93;99995.66;5051949;28;20011;-77
2021/06/24 10:10:40;;;;;;;25.15;6.50;;;;;;;33.71;33.86;99994.94;5051868;28;20458;-76
2021/06/24 10:13:11;;;;;;;32.72;7.13;;;;;;;33.81;33.58;100003.09;5052142;28;20041;-77
2021/06/24 10:15:38;;;;;;;20.05;6.90;;;;;;;33.83;32.71;99991.28;5052220;28;20417;-76
2021/06/24 10:18:05;;;;;;;22.45;6.65;;;;;;;33.94;32.57;99999.44;5051865;28;20056;-76
2021/06/24 10:20:32;;;;;;;21.23;7.47;;;;;;;33.97;34.32;100002.16;5052417;28;20397;-77
2021/06/24 10:23:13;;;;;;;28.15;7.82;;;;;;;34.00;32.88;99997.59;5052004;28;20064;-76
2021/06/24 10:25:43;;;;;;;24.65;7.45;;;;;;;34.09;33.08;100003.41;5051772;28;20072;-76
2021/06/24 10:28:12;;;;;;;31.33;7.03;;;;;;;34.13;32.26;100002.03;5051705;28;20032;-76
2021/06/24 10:30:42;;;;;;;25.15;6.93;;;;;;;34.11;32.78;100000.91;5051890;28;20068;-76
2021/06/24 10:33:11;;;;;;;26.70;7.03;;;;;;;34.10;32.88;100010.66;5051605;28;20037;-77
2021/06/24 10:35:43;;;;;;;20.65;7.22;;;;;;;34.18;33.32;99997.03;5051896;28;20490;-77
2021/06/24 10:38:12;;;;;;;24.67;7.00;;;;;;;34.26;33.05;99999.16;5051442;28;20044;-76
2021/06/24 10:40:42;;;;;;;22.13;7.25;;;;;;;34.25;32.46;99994.75;5051827;28;20422;-77
2021/06/24 10:43:10;;;;;;;18.80;7.35;;;;;;;34.20;33.43;100003.81;5051689;28;20529;-76
2021/06/24 10:45:37;;;;;;;29.38;7.80;;;;;;;34.22;32.39;100001.31;5051862;28;20043;-76
2021/06/24 10:48:28;;;;;;;18.45;7.38;;;;;;;34.18;31.07;99997.03;5050361;28;20482;-77
2021/06/24 10:51:04;;;;;;;22.17;7.50;;;;;;;34.13;32.14;99990.69;5050179;28;20043;-76
2021/06/24 10:53:35;;;;;;;22.92;7.30;;;;;;;34.20;32.04;99994.53;5051722;28;20467;-76
2021/06/24 10:56:24;;;;;;;19.52;6.93;;;;;;;34.27;32.36;99997.09;5051670;28;20033;-76
2021/06/24 10:58:50;;;;;;;22.35;6.75;;;;;;;34.30;31.27;99999.81;5051222;28;20060;-76
2021/06/24 11:01:39;;;;;;;24.02;7.13;;;;;;;34.30;31.80;99979.94;5051351;28;20041;-77
2021/06/24 11:04:06;;;;;;;15.05;6.68;;;;;;;34.40;31.40;99983.66;5051284;28;20041;-76
2021/06/24 11:06:50;;;;;;;25.13;7.50;;;;;;;34.40;30.88;99992.16;5051518;28;20067;-76
2021/06/24 11:09:18;;;;;;;23.15;7.22;;;;;;;34.45;31.33;99983.06;5051283;28;20041;-76
2021/06/24 11:11:45;;;;;;;22.52;7.20;;;;;;;34.31;29.74;99981.56;5051126;28;20325;-77
2021/06/24 11:14:16;;;;;;;15.80;6.38;;;;;;;34.31;29.03;99981.56;5051111;28;20095;-76
2021/06/24 11:16:45;;;;;;;34.35;7.78;;;;;;;34.24;29.73;99984.66;5051454;28;20103;-76
2021/06/24 11:19:16;;;;;;;34.65;8.00;;;;;;;34.31;30.62;99978.72;5051104;28;20480;-76
2021/06/24 11:21:42;;;;;;;61.40;9.65;;;;;;;34.44;31.16;99977.84;5049950;28;20116;-77
2021/06/24 11:24:13;;;;;;;23.80;6.55;;;;;;;34.57;30.25;99970.09;5051366;28;20040;-76
2021/06/24 11:26:42;;;;;;;28.05;6.38;;;;;;;34.72;29.98;99978.88;5051381;28;20045;-77
2021/06/24 11:29:09;;;;;;;13.48;6.88;;;;;;;34.84;30.23;99975.97;5051042;28;20556;-77
2021/06/24 11:37:18;;;;;;;21.90;6.50;;;;;;;35.08;30.47;99975.50;5051021;28;20431;-77